SJV123 WAAA-WAFO
Flight info
| Callsign | SJV123 |
|---|---|
| Flight time | 0h 41m |
| Altitude | 25000 |
| Route | VENRU W32 DIOLA |
| Aircraft | A320/M-SDE3FGHIRWY/LB1 |
Departure
| Time | 2026-04-23 04:03 |
|---|---|
| Airport | Sultan Hasanuddin International Airport (WAAA) |
Arrival
| Time | 2026-04-23 04:45 |
|---|---|
| Airport | Maleo Airport (WAFO) |
| Time | Latitude | Longitude | Altitude | Speed | Heading |
|---|---|---|---|---|---|
| 2026-04-23 03:40 | -5.07709 | 119.54766 | 41 ft | 0 kts | 299° |
| 2026-04-23 03:42 | -5.07709 | 119.54767 | 41 ft | 0 kts | 299° |
| 2026-04-23 03:54 | -5.07711 | 119.54769 | 40 ft | 3 kts | 299° |
| 2026-04-23 03:55 | -5.07723 | 119.54793 | 41 ft | 4 kts | 291° |
| 2026-04-23 03:55 | -5.07730 | 119.54818 | 41 ft | 4 kts | 271° |
| 2026-04-23 03:55 | -5.07725 | 119.54840 | 41 ft | 3 kts | 214° |
| 2026-04-23 03:55 | -5.07722 | 119.54842 | 41 ft | 0 kts | 210° |
| 2026-04-23 03:58 | -5.07740 | 119.54832 | 41 ft | 8 kts | 210° |
| 2026-04-23 03:58 | -5.07813 | 119.54789 | 41 ft | 16 kts | 210° |
| 2026-04-23 03:58 | -5.07928 | 119.54721 | 39 ft | 17 kts | 210° |
| 2026-04-23 03:59 | -5.07991 | 119.54708 | 41 ft | 7 kts | 118° |
| 2026-04-23 03:59 | -5.08018 | 119.54758 | 41 ft | 9 kts | 118° |
| 2026-04-23 03:59 | -5.08053 | 119.54819 | 41 ft | 11 kts | 124° |
| 2026-04-23 03:59 | -5.08128 | 119.54834 | 41 ft | 13 kts | 203° |
| 2026-04-23 04:00 | -5.08224 | 119.54779 | 41 ft | 19 kts | 210° |
| 2026-04-23 04:00 | -5.08355 | 119.54704 | 40 ft | 25 kts | 210° |
| 2026-04-23 04:00 | -5.08515 | 119.54612 | 39 ft | 27 kts | 210° |
| 2026-04-23 04:00 | -5.08685 | 119.54514 | 41 ft | 29 kts | 210° |
| 2026-04-23 04:01 | -5.08865 | 119.54410 | 41 ft | 30 kts | 210° |
| 2026-04-23 04:01 | -5.09049 | 119.54304 | 41 ft | 21 kts | 209° |
| 2026-04-23 04:01 | -5.09146 | 119.54280 | 41 ft | 15 kts | 156° |
| 2026-04-23 04:01 | -5.09208 | 119.54368 | 39 ft | 17 kts | 119° |
| 2026-04-23 04:02 | -5.09179 | 119.54435 | 42 ft | 13 kts | 28° |
| 2026-04-23 04:02 | -5.09003 | 119.54535 | 43 ft | 58 kts | 30° |
| 2026-04-23 04:02 | -5.08462 | 119.54847 | 41 ft | 118 kts | 30° |
| 2026-04-23 04:02 | -5.07611 | 119.55336 | 44 ft | 162 kts | 29° |
| 2026-04-23 04:03 | -5.06593 | 119.55840 | 587 ft | 161 kts | 11° |
| 2026-04-23 04:03 | -5.05481 | 119.55781 | 1204 ft | 160 kts | 350° |
| 2026-04-23 04:03 | -5.04388 | 119.55648 | 1822 ft | 163 kts | 358° |
| 2026-04-23 04:03 | -5.03180 | 119.55654 | 2111 ft | 182 kts | 1° |
| 2026-04-23 04:04 | -5.01857 | 119.55692 | 2327 ft | 204 kts | 2° |
| 2026-04-23 04:04 | -5.00331 | 119.55738 | 2550 ft | 229 kts | 2° |
| 2026-04-23 04:04 | -4.98652 | 119.55784 | 2901 ft | 254 kts | 2° |
| 2026-04-23 04:04 | -4.96831 | 119.55829 | 3480 ft | 267 kts | 1° |
| 2026-04-23 04:05 | -4.94957 | 119.55864 | 4304 ft | 271 kts | 1° |
| 2026-04-23 04:05 | -4.93057 | 119.55879 | 5151 ft | 275 kts | 1° |
| 2026-04-23 04:05 | -4.91155 | 119.55895 | 5972 ft | 279 kts | 2° |
| 2026-04-23 04:05 | -4.89246 | 119.56238 | 6758 ft | 281 kts | 21° |
| 2026-04-23 04:06 | -4.87537 | 119.57244 | 7511 ft | 284 kts | 40° |
| 2026-04-23 04:06 | -4.86059 | 119.58533 | 8246 ft | 287 kts | 41° |
| 2026-04-23 04:06 | -4.84547 | 119.59858 | 8955 ft | 290 kts | 41° |
| 2026-04-23 04:06 | -4.83019 | 119.61199 | 9656 ft | 293 kts | 41° |
| 2026-04-23 04:07 | -4.81472 | 119.62555 | 10245 ft | 302 kts | 41° |
| 2026-04-23 04:07 | -4.79830 | 119.63991 | 10391 ft | 324 kts | 41° |
| 2026-04-23 04:07 | -4.78056 | 119.65540 | 10615 ft | 342 kts | 41° |
| 2026-04-23 04:07 | -4.76268 | 119.67099 | 11141 ft | 347 kts | 41° |
| 2026-04-23 04:08 | -4.74438 | 119.68691 | 11773 ft | 349 kts | 41° |
| 2026-04-23 04:08 | -4.72604 | 119.70289 | 12394 ft | 351 kts | 41° |
| 2026-04-23 04:08 | -4.70755 | 119.71905 | 13009 ft | 353 kts | 41° |
| 2026-04-23 04:08 | -4.68896 | 119.73532 | 13601 ft | 356 kts | 41° |
| 2026-04-23 04:09 | -4.67026 | 119.75165 | 14210 ft | 358 kts | 41° |
| 2026-04-23 04:09 | -4.65136 | 119.76812 | 14743 ft | 361 kts | 41° |
| 2026-04-23 04:09 | -4.63233 | 119.78473 | 15298 ft | 364 kts | 41° |
| 2026-04-23 04:09 | -4.61317 | 119.80147 | 15822 ft | 367 kts | 41° |
| 2026-04-23 04:10 | -4.59385 | 119.81833 | 16351 ft | 370 kts | 41° |
| 2026-04-23 04:10 | -4.57436 | 119.83528 | 16863 ft | 372 kts | 41° |
| 2026-04-23 04:10 | -4.55468 | 119.85236 | 17373 ft | 375 kts | 41° |
| 2026-04-23 04:10 | -4.53489 | 119.86954 | 17890 ft | 378 kts | 41° |
| 2026-04-23 04:11 | -4.51500 | 119.88682 | 18415 ft | 380 kts | 41° |
| 2026-04-23 04:11 | -4.49498 | 119.90428 | 18897 ft | 383 kts | 41° |
| 2026-04-23 04:11 | -4.47480 | 119.92189 | 19353 ft | 386 kts | 41° |
| 2026-04-23 04:11 | -4.45444 | 119.93968 | 19809 ft | 390 kts | 42° |
| 2026-04-23 04:12 | -4.43394 | 119.95760 | 20257 ft | 393 kts | 42° |
| 2026-04-23 04:12 | -4.41327 | 119.97568 | 20666 ft | 396 kts | 42° |
| 2026-04-23 04:12 | -4.39244 | 119.99387 | 21091 ft | 399 kts | 42° |
| 2026-04-23 04:12 | -4.37142 | 120.01218 | 21493 ft | 402 kts | 42° |
| 2026-04-23 04:13 | -4.35029 | 120.03056 | 21867 ft | 404 kts | 41° |
| 2026-04-23 04:13 | -4.32901 | 120.04911 | 22234 ft | 407 kts | 42° |
| 2026-04-23 04:13 | -4.30759 | 120.06780 | 22601 ft | 410 kts | 42° |
| 2026-04-23 04:13 | -4.28605 | 120.08658 | 22952 ft | 412 kts | 42° |
| 2026-04-23 04:14 | -4.26434 | 120.10548 | 23275 ft | 415 kts | 41° |
| 2026-04-23 04:14 | -4.24246 | 120.12450 | 23605 ft | 418 kts | 41° |
| 2026-04-23 04:14 | -4.22045 | 120.14362 | 23930 ft | 420 kts | 41° |
| 2026-04-23 04:14 | -4.19833 | 120.16286 | 24253 ft | 422 kts | 42° |
| 2026-04-23 04:15 | -4.17611 | 120.18224 | 24563 ft | 424 kts | 42° |
| 2026-04-23 04:15 | -4.15379 | 120.20172 | 24830 ft | 426 kts | 42° |
| 2026-04-23 04:15 | -4.10889 | 120.24077 | 24898 ft | 428 kts | 42° |
| 2026-04-23 04:16 | -4.08644 | 120.26034 | 24898 ft | 428 kts | 42° |
| 2026-04-23 04:16 | -4.06395 | 120.27998 | 24896 ft | 428 kts | 42° |
| 2026-04-23 04:16 | -4.04148 | 120.29957 | 24896 ft | 428 kts | 42° |
| 2026-04-23 04:16 | -4.01898 | 120.31914 | 24895 ft | 428 kts | 41° |
| 2026-04-23 04:17 | -3.99647 | 120.33868 | 24896 ft | 428 kts | 41° |
| 2026-04-23 04:17 | -3.97396 | 120.35822 | 24898 ft | 428 kts | 42° |
| 2026-04-23 04:17 | -3.95146 | 120.37780 | 24896 ft | 428 kts | 42° |
| 2026-04-23 04:17 | -3.92899 | 120.39739 | 24894 ft | 428 kts | 42° |
| 2026-04-23 04:18 | -3.90654 | 120.41696 | 24895 ft | 428 kts | 42° |
| 2026-04-23 04:18 | -3.88407 | 120.43651 | 24892 ft | 428 kts | 42° |
| 2026-04-23 04:18 | -3.86159 | 120.45601 | 24891 ft | 428 kts | 42° |
| 2026-04-23 04:18 | -3.83913 | 120.47554 | 24891 ft | 428 kts | 42° |
| 2026-04-23 04:19 | -3.81668 | 120.49506 | 24891 ft | 427 kts | 42° |
| 2026-04-23 04:19 | -3.79428 | 120.51457 | 24890 ft | 427 kts | 42° |
| 2026-04-23 04:19 | -3.77186 | 120.53413 | 24888 ft | 427 kts | 42° |
| 2026-04-23 04:19 | -3.74948 | 120.55366 | 24887 ft | 427 kts | 42° |
| 2026-04-23 04:20 | -3.72708 | 120.57317 | 24886 ft | 427 kts | 42° |
| 2026-04-23 04:20 | -3.70466 | 120.59263 | 24884 ft | 427 kts | 42° |
| 2026-04-23 04:20 | -3.68222 | 120.61209 | 24885 ft | 427 kts | 42° |
| 2026-04-23 04:20 | -3.65978 | 120.63155 | 24886 ft | 427 kts | 42° |
| 2026-04-23 04:21 | -3.63730 | 120.65105 | 24887 ft | 427 kts | 42° |
| 2026-04-23 04:21 | -3.61514 | 120.67027 | 24888 ft | 427 kts | 42° |
| 2026-04-23 04:21 | -3.59268 | 120.68977 | 24889 ft | 427 kts | 42° |
| 2026-04-23 04:21 | -3.57027 | 120.70930 | 24890 ft | 428 kts | 42° |
| 2026-04-23 04:22 | -3.54754 | 120.72915 | 24898 ft | 438 kts | 42° |
| 2026-04-23 04:22 | -3.52432 | 120.74937 | 24899 ft | 447 kts | 42° |
| 2026-04-23 04:22 | -3.50058 | 120.76999 | 24899 ft | 456 kts | 42° |
| 2026-04-23 04:22 | -3.47646 | 120.79092 | 24898 ft | 462 kts | 42° |
| 2026-04-23 04:23 | -3.45200 | 120.81216 | 24893 ft | 469 kts | 42° |
| 2026-04-23 04:23 | -3.42716 | 120.83373 | 24887 ft | 475 kts | 42° |
| 2026-04-23 04:23 | -3.40204 | 120.85554 | 24888 ft | 481 kts | 42° |
| 2026-04-23 04:23 | -3.37664 | 120.87758 | 24887 ft | 485 kts | 41° |
| 2026-04-23 04:24 | -3.35110 | 120.89972 | 24888 ft | 486 kts | 41° |
| 2026-04-23 04:24 | -3.32554 | 120.92190 | 24887 ft | 486 kts | 42° |
| 2026-04-23 04:24 | -3.30000 | 120.94409 | 24888 ft | 486 kts | 42° |
| 2026-04-23 04:24 | -3.27446 | 120.96630 | 24888 ft | 487 kts | 42° |
| 2026-04-23 04:25 | -3.24893 | 120.98852 | 24888 ft | 486 kts | 42° |
| 2026-04-23 04:25 | -3.22339 | 121.01073 | 24888 ft | 487 kts | 42° |
| 2026-04-23 04:25 | -3.19783 | 121.03294 | 24887 ft | 486 kts | 42° |
| 2026-04-23 04:25 | -3.17225 | 121.05511 | 24886 ft | 486 kts | 42° |
| 2026-04-23 04:26 | -3.14667 | 121.07725 | 24887 ft | 486 kts | 42° |
| 2026-04-23 04:26 | -3.12115 | 121.09937 | 24886 ft | 486 kts | 41° |
| 2026-04-23 04:26 | -3.09558 | 121.12152 | 24883 ft | 486 kts | 41° |
| 2026-04-23 04:26 | -3.06985 | 121.14336 | 24881 ft | 485 kts | 41° |
| 2026-04-23 04:27 | -3.04386 | 121.16482 | 24881 ft | 480 kts | 40° |
| 2026-04-23 04:27 | -3.01853 | 121.18534 | 24884 ft | 457 kts | 40° |
| 2026-04-23 04:27 | -2.99432 | 121.20485 | 24886 ft | 438 kts | 40° |
| 2026-04-23 04:28 | -2.94784 | 121.24250 | 24729 ft | 421 kts | 40° |
| 2026-04-23 04:28 | -2.92538 | 121.26089 | 24260 ft | 414 kts | 40° |
| 2026-04-23 04:28 | -2.90325 | 121.27907 | 23758 ft | 409 kts | 40° |
| 2026-04-23 04:28 | -2.88138 | 121.29705 | 23262 ft | 404 kts | 40° |
| 2026-04-23 04:29 | -2.85978 | 121.31480 | 22803 ft | 400 kts | 40° |
| 2026-04-23 04:29 | -2.83836 | 121.33238 | 22338 ft | 396 kts | 40° |
| 2026-04-23 04:29 | -2.81716 | 121.34980 | 21868 ft | 393 kts | 40° |
| 2026-04-23 04:29 | -2.79616 | 121.36706 | 21406 ft | 389 kts | 40° |
| 2026-04-23 04:30 | -2.77534 | 121.38416 | 20934 ft | 385 kts | 40° |
| 2026-04-23 04:30 | -2.75472 | 121.40109 | 20469 ft | 382 kts | 40° |
| 2026-04-23 04:30 | -2.73429 | 121.41787 | 19988 ft | 378 kts | 40° |
| 2026-04-23 04:30 | -2.71403 | 121.43450 | 19518 ft | 375 kts | 40° |
| 2026-04-23 04:31 | -2.69392 | 121.45095 | 19016 ft | 372 kts | 40° |
| 2026-04-23 04:31 | -2.67401 | 121.46726 | 18528 ft | 368 kts | 40° |
| 2026-04-23 04:31 | -2.65429 | 121.48344 | 18039 ft | 365 kts | 40° |
| 2026-04-23 04:31 | -2.63479 | 121.49945 | 17554 ft | 361 kts | 40° |
| 2026-04-23 04:32 | -2.61544 | 121.51533 | 17070 ft | 358 kts | 40° |
| 2026-04-23 04:32 | -2.59625 | 121.53106 | 16565 ft | 356 kts | 40° |
| 2026-04-23 04:32 | -2.57712 | 121.54672 | 16070 ft | 354 kts | 40° |
| 2026-04-23 04:32 | -2.55844 | 121.56208 | 15592 ft | 351 kts | 40° |
| 2026-04-23 04:33 | -2.53964 | 121.57751 | 15108 ft | 348 kts | 40° |
| 2026-04-23 04:33 | -2.52098 | 121.59276 | 14614 ft | 346 kts | 40° |
| 2026-04-23 04:33 | -2.50242 | 121.60793 | 14128 ft | 343 kts | 40° |
| 2026-04-23 04:33 | -2.48405 | 121.62298 | 13667 ft | 340 kts | 40° |
| 2026-04-23 04:34 | -2.46584 | 121.63793 | 13202 ft | 338 kts | 40° |
| 2026-04-23 04:34 | -2.44772 | 121.65285 | 12692 ft | 337 kts | 40° |
| 2026-04-23 04:34 | -2.42968 | 121.66770 | 12213 ft | 335 kts | 40° |
| 2026-04-23 04:34 | -2.41183 | 121.68237 | 11825 ft | 331 kts | 40° |
| 2026-04-23 04:35 | -2.39428 | 121.69717 | 11348 ft | 330 kts | 41° |
| 2026-04-23 04:35 | -2.37697 | 121.71213 | 10874 ft | 328 kts | 41° |
| 2026-04-23 04:35 | -2.35979 | 121.72709 | 10453 ft | 326 kts | 41° |
| 2026-04-23 04:35 | -2.34298 | 121.74173 | 10338 ft | 314 kts | 41° |
| 2026-04-23 04:36 | -2.32680 | 121.75578 | 10252 ft | 302 kts | 41° |
| 2026-04-23 04:36 | -2.31118 | 121.76938 | 10053 ft | 295 kts | 41° |
| 2026-04-23 04:36 | -2.29588 | 121.78265 | 9970 ft | 291 kts | 41° |
| 2026-04-23 04:36 | -2.28044 | 121.79602 | 9576 ft | 295 kts | 41° |
| 2026-04-23 04:37 | -2.26447 | 121.80891 | 9176 ft | 296 kts | 33° |
| 2026-04-23 04:37 | -2.25226 | 121.81539 | 8960 ft | 295 kts | 24° |
| 2026-04-23 04:37 | -2.23349 | 121.82307 | 8587 ft | 294 kts | 23° |
| 2026-04-23 04:37 | -2.21428 | 121.83083 | 8182 ft | 295 kts | 22° |
| 2026-04-23 04:38 | -2.19572 | 121.83830 | 7931 ft | 290 kts | 22° |
| 2026-04-23 04:38 | -2.17706 | 121.84585 | 7588 ft | 289 kts | 22° |
| 2026-04-23 04:38 | -2.15833 | 121.85345 | 6987 ft | 296 kts | 22° |
| 2026-04-23 04:38 | -2.13924 | 121.86124 | 6465 ft | 292 kts | 23° |
| 2026-04-23 04:39 | -2.12075 | 121.86856 | 6073 ft | 280 kts | 18° |
| 2026-04-23 04:39 | -2.10185 | 121.87037 | 5677 ft | 271 kts | 352° |
| 2026-04-23 04:39 | -2.08456 | 121.86395 | 5275 ft | 264 kts | 326° |
| 2026-04-23 04:39 | -2.07068 | 121.85229 | 4867 ft | 258 kts | 319° |
| 2026-04-23 04:40 | -2.06015 | 121.83838 | 4484 ft | 250 kts | 288° |
| 2026-04-23 04:40 | -2.05984 | 121.82158 | 4105 ft | 243 kts | 249° |
| 2026-04-23 04:40 | -2.06831 | 121.80740 | 3767 ft | 235 kts | 231° |
| 2026-04-23 04:40 | -2.07899 | 121.79544 | 3423 ft | 227 kts | 226° |
| 2026-04-23 04:41 | -2.08990 | 121.78437 | 3101 ft | 219 kts | 226° |
| 2026-04-23 04:41 | -2.10036 | 121.77375 | 2822 ft | 210 kts | 227° |
| 2026-04-23 04:41 | -2.11028 | 121.76342 | 2554 ft | 201 kts | 227° |
| 2026-04-23 04:41 | -2.11956 | 121.75353 | 2271 ft | 190 kts | 228° |
| 2026-04-23 04:42 | -2.12821 | 121.74415 | 2041 ft | 178 kts | 229° |
| 2026-04-23 04:42 | -2.13627 | 121.73529 | 1800 ft | 168 kts | 229° |
| 2026-04-23 04:42 | -2.14385 | 121.72691 | 1610 ft | 156 kts | 229° |
| 2026-04-23 04:42 | -2.15094 | 121.71905 | 1369 ft | 149 kts | 230° |
| 2026-04-23 04:43 | -2.15783 | 121.71140 | 1156 ft | 147 kts | 230° |
| 2026-04-23 04:43 | -2.16460 | 121.70382 | 954 ft | 146 kts | 230° |
| 2026-04-23 04:43 | -2.17132 | 121.69629 | 754 ft | 145 kts | 230° |
| 2026-04-23 04:43 | -2.17804 | 121.68878 | 565 ft | 145 kts | 230° |
| 2026-04-23 04:44 | -2.18475 | 121.68127 | 365 ft | 145 kts | 229° |
| 2026-04-23 04:44 | -2.19149 | 121.67379 | 157 ft | 144 kts | 230° |
| 2026-04-23 04:44 | -2.19800 | 121.66640 | 28 ft | 132 kts | 228° |
| 2026-04-23 04:44 | -2.20249 | 121.66135 | 27 ft | 54 kts | 228° |
| 2026-04-23 04:45 | -2.20374 | 121.65995 | 28 ft | 21 kts | 229° |
| 2026-04-23 04:45 | -2.20469 | 121.65888 | 25 ft | 13 kts | 225° |
| 2026-04-23 04:45 | -2.20547 | 121.65839 | 26 ft | 14 kts | 230° |
| 2026-04-23 04:45 | -2.20526 | 121.65829 | 28 ft | 7 kts | 29° |
| 2026-04-23 04:46 | -2.20467 | 121.65891 | 26 ft | 17 kts | 47° |
| 2026-04-23 04:46 | -2.20366 | 121.66002 | 25 ft | 26 kts | 48° |
| 2026-04-23 04:46 | -2.20237 | 121.66149 | 26 ft | 29 kts | 48° |
| 2026-04-23 04:46 | -2.20138 | 121.66260 | 27 ft | 18 kts | 48° |
| 2026-04-23 04:47 | -2.20083 | 121.66336 | 28 ft | 8 kts | 96° |
| 2026-04-23 04:47 | -2.20134 | 121.66392 | 29 ft | 13 kts | 139° |
| 2026-04-23 04:47 | -2.20172 | 121.66425 | 26 ft | 1 kts | 139° |
| 2026-04-23 04:47 | -2.20185 | 121.66436 | 29 ft | 3 kts | 139° |
| 2026-04-23 04:48 | -2.20208 | 121.66456 | 25 ft | 5 kts | 137° |
| 2026-04-23 04:48 | -2.20239 | 121.66484 | 30 ft | 6 kts | 140° |
| 2026-04-23 04:48 | -2.20255 | 121.66498 | 25 ft | 0 kts | 139° |